Eureka の空港の天気 - METARとTAF

Eureka ( CWEU / ) - カナダ ヌナブト準州Eureka
飛行場実況気象(Metar)
観測時間06/17 14:00 CDT (06/17 19:00 UTC)
風向・風速南南東 7m/s
視程10km以上
天気現象
少しの雲 雲底高度 370m
全天の4割程度の雲 雲底高度 910m
全天の8割程度の雲 雲底高度 1830m
全天の8割程度の雲 雲底高度 2290m
気温5℃
湿度81%
気圧1011.2hPa
METARCWEU 171900Z 15014KT 15SM FEW012 SCT030 BKN060 BKN075 05/02 A2985 RMK SC1SC2SC2AC2 SLP112
過去の天気等 Google飛行場航空写真 Wunderground天気予報

過去48時間のMETAR

飛行場予報(TAF)
データがありません